createdAt,value
2018-09-08T00:01:41.942Z,11.95
2018-09-08T00:04:11.874Z,11.94
2018-09-08T00:06:41.601Z,11.92
2018-09-08T00:09:11.309Z,11.91
2018-09-08T00:11:41.094Z,11.85
2018-09-08T00:14:10.875Z,11.80
2018-09-08T00:16:45.843Z,11.71
2018-09-08T00:19:20.690Z,11.66
2018-09-08T00:21:55.413Z,11.63
2018-09-08T00:24:30.476Z,11.56
2018-09-08T00:26:59.181Z,11.56
2018-09-08T00:29:36.705Z,11.56
2018-09-08T00:32:11.873Z,11.54
2018-09-08T00:34:42.096Z,11.41
2018-09-08T00:37:11.853Z,11.33
2018-09-08T00:39:43.272Z,11.37
2018-09-08T00:42:13.185Z,11.34
2018-09-08T00:44:42.860Z,11.22
2018-09-08T00:47:12.798Z,11.09
2018-09-08T00:49:42.591Z,10.96
2018-09-08T00:52:12.281Z,10.95
2018-09-08T00:54:42.050Z,10.81
2018-09-08T00:57:12.241Z,10.71
2018-09-08T00:59:42.113Z,10.69
2018-09-08T01:02:12.209Z,10.66
2018-09-08T01:04:42.392Z,10.81
2018-09-08T01:07:17.465Z,10.89
2018-09-08T01:09:47.463Z,10.99
2018-09-08T01:12:17.580Z,11.04
2018-09-08T01:14:47.315Z,11.02
2018-09-08T01:17:17.281Z,10.94
2018-09-08T01:19:47.225Z,10.79
2018-09-08T01:22:17.979Z,10.58
2018-09-08T01:24:48.042Z,10.54
2018-09-08T01:27:17.773Z,10.69
2018-09-08T01:29:47.507Z,10.65
2018-09-08T01:32:18.283Z,10.60
2018-09-08T01:34:47.986Z,10.47
2018-09-08T01:37:17.701Z,10.53
2018-09-08T01:39:47.510Z,10.47
2018-09-08T01:42:17.276Z,10.48
2018-09-08T01:44:47.084Z,10.62
2018-09-08T01:47:16.849Z,10.71
2018-09-08T01:49:46.576Z,10.59
2018-09-08T01:52:16.329Z,10.46
2018-09-08T01:54:46.351Z,10.32
2018-09-08T01:57:16.124Z,10.28
2018-09-08T01:59:45.969Z,10.16
2018-09-08T02:02:15.628Z,10.07
2018-09-08T02:04:45.331Z,10.06
2018-09-08T02:07:15.138Z,10.07
2018-09-08T02:09:44.781Z,9.98
2018-09-08T02:12:14.608Z,9.93
2018-09-08T02:14:44.293Z,9.98
2018-09-08T02:17:14.087Z,10.15
2018-09-08T02:19:43.792Z,10.32
2018-09-08T02:22:15.042Z,10.68
2018-09-08T02:24:44.723Z,10.77
2018-09-08T02:27:14.443Z,10.89
2018-09-08T02:29:44.139Z,10.93
2018-09-08T02:32:13.828Z,10.97
2018-09-08T02:34:43.728Z,11.05
2018-09-08T02:37:13.545Z,11.01
2018-09-08T02:39:43.225Z,11.01
2018-09-08T02:42:12.989Z,11.01
2018-09-08T02:44:42.627Z,11.07
2018-09-08T02:47:12.387Z,11.05
2018-09-08T02:49:58.609Z,10.90
2018-09-08T02:52:26.529Z,10.72
2018-09-08T02:54:54.410Z,10.88
2018-09-08T02:57:22.346Z,10.95
2018-09-08T02:59:50.199Z,10.93
2018-09-08T03:02:18.034Z,10.87
2018-09-08T03:04:45.926Z,10.85
2018-09-08T03:07:14.888Z,10.80
2018-09-08T03:09:45.317Z,10.56
2018-09-08T03:12:13.597Z,10.35
2018-09-08T03:14:41.432Z,10.26
2018-09-08T03:17:09.271Z,10.11
2018-09-08T03:19:37.117Z,10.02
2018-09-08T03:22:04.960Z,9.84
2018-09-08T03:24:32.879Z,9.95
2018-09-08T03:27:00.740Z,10.09
2018-09-08T03:29:28.598Z,10.16
2018-09-08T03:31:56.486Z,10.08
2018-09-08T03:34:24.316Z,9.98
2018-09-08T03:36:52.825Z,10.13
2018-09-08T03:39:20.663Z,10.33
2018-09-08T03:41:48.550Z,10.30
2018-09-08T03:44:16.507Z,10.35
2018-09-08T03:46:44.485Z,10.36
2018-09-08T03:49:12.437Z,10.33
2018-09-08T03:51:40.412Z,10.21
2018-09-08T03:54:08.272Z,10.19
2018-09-08T03:56:36.163Z,10.06
2018-09-08T03:59:04.186Z,10.18
2018-09-08T04:01:31.971Z,10.07
2018-09-08T04:04:01.660Z,10.01
2018-09-08T04:06:32.380Z,9.97
2018-09-08T04:09:02.211Z,9.83
2018-09-08T04:11:31.897Z,9.72
2018-09-08T04:14:01.730Z,9.72
2018-09-08T04:16:31.696Z,9.57
2018-09-08T04:19:01.404Z,9.51
2018-09-08T04:21:31.117Z,9.57
2018-09-08T04:24:00.797Z,9.65
2018-09-08T04:26:30.519Z,9.56
2018-09-08T04:29:00.285Z,9.55
2018-09-08T04:31:30.069Z,9.66
2018-09-08T04:33:59.859Z,9.82
2018-09-08T04:36:29.713Z,9.88
2018-09-08T04:38:59.397Z,9.90
2018-09-08T04:41:29.268Z,9.96
2018-09-08T04:43:59.220Z,9.87
2018-09-08T04:46:28.961Z,9.83
2018-09-08T04:48:58.721Z,9.76
2018-09-08T04:51:28.388Z,9.64
2018-09-08T04:53:58.207Z,9.63
2018-09-08T04:56:27.924Z,9.56
2018-09-08T04:58:57.609Z,9.46
2018-09-08T05:01:27.309Z,9.34
2018-09-08T05:03:57.048Z,9.47
2018-09-08T05:06:26.722Z,9.60
2018-09-08T05:08:56.581Z,9.67
2018-09-08T05:11:26.397Z,9.71
2018-09-08T05:13:56.092Z,9.72
2018-09-08T05:16:25.802Z,9.81
2018-09-08T05:18:55.493Z,9.76
2018-09-08T05:21:25.277Z,9.73
2018-09-08T05:23:54.975Z,9.63
2018-09-08T05:26:24.652Z,9.58
2018-09-08T05:28:54.323Z,9.65
2018-09-08T05:31:24.029Z,9.71
2018-09-08T05:33:53.837Z,9.89
2018-09-08T05:36:23.482Z,10.02
2018-09-08T05:38:53.121Z,10.11
2018-09-08T05:41:22.891Z,10.19
2018-09-08T05:43:52.550Z,10.24
2018-09-08T05:46:22.405Z,10.30
2018-09-08T05:48:52.145Z,10.38
2018-09-08T05:51:21.841Z,10.44
2018-09-08T05:53:51.559Z,10.54
2018-09-08T05:56:21.405Z,10.75
2018-09-08T05:58:51.923Z,10.87
2018-09-08T06:01:21.925Z,10.86
2018-09-08T06:03:52.522Z,11.06
2018-09-08T06:06:25.302Z,11.21
2018-09-08T06:08:55.610Z,11.41
2018-09-08T06:11:26.237Z,11.66
2018-09-08T06:13:56.498Z,11.84
2018-09-08T06:16:27.143Z,12.00
2018-09-08T06:18:57.702Z,12.26
2018-09-08T06:21:28.183Z,12.38
2018-09-08T06:23:59.756Z,12.57
2018-09-08T06:26:30.224Z,12.64
2018-09-08T06:29:00.470Z,12.87
2018-09-08T06:31:30.598Z,12.97
2018-09-08T06:34:00.330Z,12.95
2018-09-08T06:36:30.758Z,13.24
2018-09-08T06:39:01.120Z,13.26
2018-09-08T06:41:31.817Z,13.79
2018-09-08T06:44:02.386Z,14.02
2018-09-08T06:46:34.517Z,14.28
2018-09-08T06:49:05.266Z,14.65
2018-09-08T06:51:36.215Z,14.79
2018-09-08T06:54:06.344Z,15.59
2018-09-08T06:56:36.110Z,16.17
2018-09-08T06:59:07.255Z,16.80
2018-09-08T07:01:37.418Z,17.75
2018-09-08T07:04:07.353Z,18.19
2018-09-08T07:06:42.028Z,17.53
2018-09-08T07:09:12.245Z,17.80
2018-09-08T07:11:45.284Z,17.28
2018-09-08T07:14:15.079Z,16.98
2018-09-08T07:16:47.098Z,17.08
2018-09-08T07:19:16.842Z,16.98
2018-09-08T07:21:46.712Z,16.87
2018-09-08T07:24:19.987Z,17.09
2018-09-08T07:26:49.857Z,17.41
2018-09-08T07:29:19.604Z,17.08
2018-09-08T07:31:49.438Z,16.73
2018-09-08T07:34:19.226Z,17.03
2018-09-08T07:36:48.965Z,16.70
2018-09-08T07:39:19.674Z,16.60
2018-09-08T07:41:50.303Z,17.58
2018-09-08T07:44:19.950Z,17.28
2018-09-08T07:46:52.377Z,17.69
2018-09-08T07:49:22.036Z,18.28
2018-09-08T07:51:51.685Z,18.57
2018-09-08T07:54:21.356Z,18.55
2018-09-08T07:56:51.502Z,18.90
2018-09-08T07:59:23.454Z,19.58
2018-09-08T08:01:54.946Z,19.63
2018-09-08T08:04:25.520Z,20.26
2018-09-08T08:06:55.952Z,20.28
2018-09-08T08:09:26.025Z,19.15
2018-09-08T08:11:55.827Z,18.65
2018-09-08T08:14:25.650Z,20.08
2018-09-08T08:16:55.400Z,20.22
2018-09-08T08:19:25.140Z,20.47
2018-09-08T08:21:55.137Z,20.20
2018-09-08T08:24:24.875Z,20.74
2018-09-08T08:26:54.622Z,21.40
2018-09-08T08:29:24.497Z,21.57
2018-09-08T08:31:54.425Z,21.48
2018-09-08T08:34:24.329Z,22.54
2018-09-08T08:36:54.026Z,22.81
2018-09-08T08:39:23.745Z,23.02
2018-09-08T08:41:53.551Z,21.35
2018-09-08T08:44:25.275Z,22.08
2018-09-08T08:46:58.796Z,20.30
2018-09-08T08:49:35.098Z,20.58
2018-09-08T08:52:21.992Z,20.47
2018-09-08T08:54:56.217Z,21.37
2018-09-08T08:57:28.318Z,21.34
2018-09-08T08:59:58.166Z,20.49
2018-09-08T09:02:30.271Z,20.47
2018-09-08T09:05:01.332Z,22.16
2018-09-08T09:07:31.227Z,22.54
2018-09-08T09:10:02.091Z,24.26
2018-09-08T09:12:32.093Z,25.63
2018-09-08T09:15:02.233Z,25.57
2018-09-08T09:17:34.024Z,23.90
2018-09-08T09:20:20.525Z,25.62
2018-09-08T09:23:07.401Z,24.93
2018-09-08T09:25:37.282Z,22.28
2018-09-08T09:28:07.359Z,21.19
2018-09-08T09:30:37.131Z,22.56
2018-09-08T09:33:09.006Z,22.93
2018-09-08T09:35:38.691Z,22.79
2018-09-08T09:38:08.337Z,21.46
2018-09-08T09:40:38.553Z,21.33
2018-09-08T09:43:08.321Z,22.58
2018-09-08T09:45:38.132Z,22.98
2018-09-08T09:48:07.865Z,22.12
2018-09-08T09:50:37.695Z,23.29
2018-09-08T09:53:07.471Z,24.55
2018-09-08T09:55:37.085Z,24.70
2018-09-08T09:58:06.841Z,26.39
2018-09-08T10:00:42.438Z,26.57
2018-09-08T10:03:12.194Z,25.58
2018-09-08T10:05:42.272Z,24.39
2018-09-08T10:08:12.020Z,24.24
2018-09-08T10:10:41.718Z,23.26
2018-09-08T10:13:11.641Z,23.74
2018-09-08T10:15:41.377Z,22.65
2018-09-08T10:18:11.119Z,23.26
2018-09-08T10:20:40.807Z,25.44
2018-09-08T10:23:10.721Z,25.54
2018-09-08T10:25:40.380Z,25.44
2018-09-08T10:28:10.122Z,25.52
2018-09-08T10:30:39.931Z,25.42
2018-09-08T10:33:09.636Z,26.78
2018-09-08T10:35:39.502Z,26.65
2018-09-08T10:38:09.193Z,24.39
2018-09-08T10:40:38.978Z,25.43
2018-09-08T10:43:08.790Z,26.13
2018-09-08T10:45:38.726Z,25.17
2018-09-08T10:48:08.504Z,23.88
2018-09-08T10:50:38.248Z,23.55
2018-09-08T10:53:08.289Z,25.35
2018-09-08T10:55:37.973Z,26.29
2018-09-08T10:58:07.978Z,26.40
2018-09-08T11:00:37.737Z,27.22
2018-09-08T11:03:08.411Z,26.13
2018-09-08T11:05:38.295Z,25.31
2018-09-08T11:10:36.863Z,22.12
2018-09-08T11:13:07.059Z,23.36
2018-09-08T11:15:36.726Z,22.76
2018-09-08T11:18:06.610Z,22.31
2018-09-08T11:20:36.327Z,21.97
2018-09-08T11:23:06.124Z,23.63
2018-09-08T11:25:35.774Z,24.48
2018-09-08T11:28:05.553Z,24.36
2018-09-08T11:30:35.279Z,25.25
2018-09-08T11:33:05.443Z,24.57
2018-09-08T11:35:35.185Z,24.66
2018-09-08T11:38:05.299Z,25.57
2018-09-08T11:40:35.128Z,25.56
2018-09-08T11:43:05.253Z,26.23
2018-09-08T11:45:36.618Z,26.45
2018-09-08T11:48:08.397Z,25.42
2018-09-08T11:50:38.113Z,26.21
2018-09-08T11:53:07.875Z,26.55
2018-09-08T11:55:37.606Z,25.09
2018-09-08T11:58:07.488Z,24.25
2018-09-08T12:00:37.273Z,23.58
2018-09-08T12:03:07.254Z,22.85
2018-09-08T12:05:38.155Z,24.03
2018-09-08T12:08:08.622Z,24.72
2018-09-08T12:10:39.662Z,24.43
2018-09-08T12:13:09.548Z,24.86
2018-09-08T12:15:45.694Z,24.54
2018-09-08T12:18:17.971Z,24.82
2018-09-08T12:20:48.027Z,25.18
2018-09-08T12:23:18.091Z,25.08
2018-09-08T12:25:49.809Z,24.81
2018-09-08T12:28:22.474Z,26.29
2018-09-08T12:30:53.594Z,26.30
2018-09-08T12:33:23.347Z,26.90
2018-09-08T12:35:53.364Z,26.47
2018-09-08T12:38:23.935Z,26.45
2018-09-08T12:40:53.721Z,25.14
2018-09-08T12:43:24.218Z,24.91
2018-09-08T12:45:53.999Z,24.77
2018-09-08T12:48:23.732Z,25.17
2018-09-08T12:50:53.973Z,25.40
2018-09-08T12:53:25.108Z,25.61
2018-09-08T12:55:54.829Z,25.72
2018-09-08T12:58:25.662Z,25.88
2018-09-08T13:00:55.765Z,25.75
2018-09-08T13:03:28.519Z,25.76
2018-09-08T13:05:58.320Z,25.86
2018-09-08T13:08:29.268Z,24.82
2018-09-08T13:11:00.615Z,25.11
2018-09-08T13:13:31.763Z,25.75
2018-09-08T13:16:01.458Z,25.90
2018-09-08T13:18:31.161Z,25.91
2018-09-08T13:21:01.153Z,25.66
2018-09-08T13:23:30.829Z,25.29
2018-09-08T13:26:00.613Z,25.65
2018-09-08T13:28:30.479Z,25.77
2018-09-08T13:31:02.379Z,26.31
2018-09-08T13:33:33.962Z,26.36
2018-09-08T13:36:04.001Z,26.38
2018-09-08T13:38:36.236Z,26.00
2018-09-08T13:41:06.309Z,25.63
2018-09-08T13:43:36.007Z,25.74
2018-09-08T13:46:05.793Z,26.21
2018-09-08T13:48:35.477Z,25.62
2018-09-08T13:51:05.456Z,25.74
2018-09-08T13:53:35.574Z,25.38
2018-09-08T13:56:05.402Z,25.81
2018-09-08T13:58:35.589Z,25.62
2018-09-08T14:01:06.081Z,25.46
2018-09-08T14:03:36.680Z,25.94
2018-09-08T14:06:07.309Z,25.93
2018-09-08T14:08:38.463Z,25.94
2018-09-08T14:11:08.328Z,26.06
2018-09-08T14:13:38.860Z,25.84
2018-09-08T14:16:08.597Z,25.43
2018-09-08T14:18:38.394Z,25.75
2018-09-08T14:21:08.214Z,25.96
2018-09-08T14:23:38.103Z,25.86
2018-09-08T14:26:09.325Z,26.11
2018-09-08T14:28:39.464Z,26.23
2018-09-08T14:31:09.976Z,26.28
2018-09-08T14:33:41.695Z,26.44
2018-09-08T14:36:11.689Z,25.97
2018-09-08T14:38:41.629Z,25.40
2018-09-08T14:41:12.422Z,24.84
2018-09-08T14:43:42.207Z,25.69
2018-09-08T14:46:12.193Z,26.24
2018-09-08T14:48:42.929Z,26.96
2018-09-08T14:51:12.876Z,27.16
2018-09-08T14:53:42.811Z,26.35
2018-09-08T14:56:14.078Z,25.90
2018-09-08T14:58:43.992Z,25.70
2018-09-08T15:01:13.959Z,24.93
2018-09-08T15:03:45.167Z,24.21
2018-09-08T15:06:16.034Z,24.04
2018-09-08T15:08:45.866Z,25.03
2018-09-08T15:11:15.574Z,24.78
2018-09-08T15:13:46.875Z,25.01
2018-09-08T15:16:16.692Z,24.70
2018-09-08T15:18:46.654Z,24.52
2018-09-08T15:21:16.407Z,24.77
2018-09-08T15:23:46.956Z,24.60
2018-09-08T15:26:16.961Z,24.02
2018-09-08T15:28:46.602Z,23.32
2018-09-08T15:31:16.455Z,23.65
2018-09-08T15:33:46.171Z,23.62
2018-09-08T15:36:15.887Z,23.05
2018-09-08T15:38:45.610Z,22.64
2018-09-08T15:41:15.389Z,23.02
2018-09-08T15:43:45.709Z,22.87
2018-09-08T15:46:15.390Z,22.99
2018-09-08T15:48:45.124Z,22.81
2018-09-08T15:51:14.831Z,22.67
2018-09-08T15:53:44.713Z,23.00
2018-09-08T15:56:14.438Z,22.79
2018-09-08T15:58:44.453Z,22.75
2018-09-08T16:01:14.180Z,22.77
2018-09-08T16:03:43.843Z,23.02
2018-09-08T16:06:13.769Z,22.55
2018-09-08T16:08:43.456Z,22.94
2018-09-08T16:11:13.135Z,22.59
2018-09-08T16:13:42.954Z,22.24
2018-09-08T16:16:12.823Z,22.25
2018-09-08T16:18:42.625Z,22.12
2018-09-08T16:21:12.374Z,21.91
2018-09-08T16:23:42.295Z,21.85
2018-09-08T16:26:12.186Z,21.66
2018-09-08T16:28:42.010Z,21.71
2018-09-08T16:31:11.672Z,21.72
2018-09-08T16:33:41.356Z,21.51
2018-09-08T16:36:11.830Z,21.45
2018-09-08T16:38:42.445Z,21.32
2018-09-08T16:41:14.810Z,21.48
2018-09-08T16:43:44.621Z,21.31
2018-09-08T16:46:14.516Z,21.22
2018-09-08T16:48:44.522Z,21.25
2018-09-08T16:51:14.566Z,21.04
2018-09-08T16:53:44.405Z,21.20
2018-09-08T16:56:14.182Z,20.89
2018-09-08T16:58:44.043Z,20.68
2018-09-08T17:01:13.795Z,20.63
2018-09-08T17:03:43.484Z,20.57
2018-09-08T17:06:14.073Z,20.43
2018-09-08T17:08:43.915Z,20.31
2018-09-08T17:11:13.593Z,20.14
2018-09-08T17:16:10.363Z,19.95
2018-09-08T17:18:40.698Z,19.83
2018-09-08T17:21:10.713Z,19.76
2018-09-08T17:23:40.799Z,19.71
2018-09-08T17:26:10.704Z,19.60
2018-09-08T17:28:40.777Z,19.54
2018-09-08T17:31:10.620Z,19.46
2018-09-08T17:33:41.473Z,19.29
2018-09-08T17:36:11.184Z,19.09
2018-09-08T17:38:40.933Z,18.99
2018-09-08T17:41:10.694Z,18.87
2018-09-08T17:43:40.354Z,18.76
2018-09-08T17:46:10.076Z,18.65
2018-09-08T17:48:41.916Z,18.56
2018-09-08T17:51:12.260Z,18.38
2018-09-08T17:53:42.297Z,18.32
2018-09-08T17:56:12.173Z,18.22
2018-09-08T17:58:42.282Z,18.07
2018-09-08T18:01:12.412Z,17.97
2018-09-08T18:03:43.004Z,17.84
2018-09-08T18:06:12.922Z,17.68
2018-09-08T18:08:43.687Z,17.54
2018-09-08T18:11:13.561Z,17.42
2018-09-08T18:13:43.428Z,17.31
2018-09-08T18:16:14.029Z,17.26
2018-09-08T18:18:43.829Z,17.19
2018-09-08T18:21:13.750Z,17.14
2018-09-08T18:23:43.659Z,17.12
2018-09-08T18:26:13.576Z,17.11
2018-09-08T18:28:43.525Z,17.09
2018-09-08T18:31:13.642Z,17.03
2018-09-08T18:33:43.467Z,16.97
2018-09-08T18:36:13.657Z,16.93
2018-09-08T18:38:43.824Z,16.94
2018-09-08T18:41:13.833Z,17.05
2018-09-08T18:43:44.039Z,17.03
2018-09-08T18:46:14.226Z,16.96
2018-09-08T18:48:44.524Z,16.83
2018-09-08T18:51:14.579Z,16.73
2018-09-08T18:53:44.763Z,16.61
2018-09-08T18:56:14.993Z,16.66
2018-09-08T18:58:45.122Z,16.68
2018-09-08T19:01:16.191Z,16.69
2018-09-08T19:03:46.084Z,16.69
2018-09-08T19:06:15.961Z,16.67
2018-09-08T19:08:46.239Z,16.55
2018-09-08T19:11:16.581Z,16.45
2018-09-08T19:13:46.600Z,16.45
2018-09-08T19:16:16.500Z,16.35
2018-09-08T19:18:46.650Z,16.32
2018-09-08T19:21:17.026Z,16.27
2018-09-08T19:23:51.340Z,16.15
2018-09-08T19:26:21.449Z,16.01
2018-09-08T19:28:56.495Z,15.85
2018-09-08T19:31:26.506Z,15.66
2018-09-08T19:33:58.350Z,15.51
2018-09-08T19:36:28.594Z,15.37
2018-09-08T19:38:58.414Z,15.25
2018-09-08T19:41:28.974Z,15.20
2018-09-08T19:43:58.673Z,15.18
2018-09-08T19:46:33.640Z,15.23
2018-09-08T19:49:03.425Z,15.35
2018-09-08T19:51:33.154Z,15.35
2018-09-08T19:54:02.995Z,15.32
2018-09-08T19:56:38.042Z,15.28
2018-09-08T19:59:07.932Z,15.31
2018-09-08T20:01:37.657Z,15.25
2018-09-08T20:04:07.455Z,15.21
2018-09-08T20:06:37.154Z,15.14
2018-09-08T20:09:08.320Z,15.10
2018-09-08T20:11:37.986Z,15.05
2018-09-08T20:14:08.107Z,15.02
2018-09-08T20:16:38.865Z,14.98
2018-09-08T20:19:09.276Z,14.99
2018-09-08T20:21:41.557Z,15.03
2018-09-08T20:24:11.416Z,15.08
2018-09-08T20:26:41.281Z,15.18
2018-09-08T20:29:11.128Z,15.26
2018-09-08T20:31:40.916Z,15.36
2018-09-08T20:34:10.807Z,15.38
2018-09-08T20:36:44.210Z,15.32
2018-09-08T20:39:16.165Z,15.26
2018-09-08T20:41:46.890Z,15.24
2018-09-08T20:44:17.437Z,15.34
2018-09-08T20:46:47.591Z,15.38
2018-09-08T20:49:17.859Z,15.39
2018-09-08T20:51:47.617Z,15.45
2018-09-08T20:54:17.845Z,15.42
2018-09-08T20:56:47.775Z,15.41
2018-09-08T20:59:17.796Z,15.44
2018-09-08T21:01:47.569Z,15.41
2018-09-08T21:04:17.358Z,15.39
2018-09-08T21:06:47.739Z,15.36
2018-09-08T21:09:17.748Z,15.27
2018-09-08T21:11:47.807Z,15.24
2018-09-08T21:14:17.482Z,15.24
2018-09-08T21:16:47.698Z,15.26
2018-09-08T21:19:18.438Z,15.21
2018-09-08T21:21:48.572Z,15.14
2018-09-08T21:24:18.434Z,15.14
2018-09-08T21:26:48.659Z,15.10
2018-09-08T21:29:18.805Z,15.08
2018-09-08T21:31:48.757Z,15.04
2018-09-08T21:34:19.159Z,14.98
2018-09-08T21:36:49.036Z,14.87
2018-09-08T21:39:18.877Z,14.83
2018-09-08T21:41:48.958Z,14.87
2018-09-08T21:44:20.078Z,14.87
2018-09-08T21:46:49.828Z,14.85
2018-09-08T21:49:19.621Z,14.90
2018-09-08T21:51:49.331Z,15.09
2018-09-08T21:54:19.151Z,15.03
2018-09-08T21:56:48.941Z,14.98
2018-09-08T21:59:18.690Z,14.97
2018-09-08T22:01:48.460Z,14.98
2018-09-08T22:04:18.418Z,15.00
2018-09-08T22:06:48.158Z,15.00
2018-09-08T22:09:18.077Z,15.01
2018-09-08T22:11:47.828Z,15.02
2018-09-08T22:14:17.745Z,15.12
2018-09-08T22:16:48.007Z,15.10
2018-09-08T22:19:18.254Z,15.00
2018-09-08T22:21:48.334Z,15.07
2018-09-08T22:24:18.120Z,15.09
2018-09-08T22:26:47.931Z,15.15
2018-09-08T22:29:18.019Z,15.06
2018-09-08T22:31:47.841Z,15.06
2018-09-08T22:34:17.779Z,15.02
2018-09-08T22:36:47.553Z,14.96
2018-09-08T22:39:17.465Z,14.92
2018-09-08T22:41:47.161Z,14.85
2018-09-08T22:44:16.992Z,14.80
2018-09-08T22:46:46.892Z,14.79
2018-09-08T22:49:16.657Z,14.81
2018-09-08T22:51:46.437Z,14.79
2018-09-08T22:54:16.272Z,14.76
2018-09-08T22:56:46.189Z,14.75
2018-09-08T22:59:16.073Z,14.71
2018-09-08T23:01:45.879Z,14.71
2018-09-08T23:04:15.805Z,14.72
2018-09-08T23:06:45.601Z,14.66
2018-09-08T23:09:15.357Z,14.74
2018-09-08T23:11:45.065Z,14.74
2018-09-08T23:14:14.830Z,14.72
2018-09-08T23:16:44.545Z,14.72
2018-09-08T23:19:14.285Z,14.67
2018-09-08T23:21:43.954Z,14.63
2018-09-08T23:24:13.984Z,14.61
2018-09-08T23:26:43.647Z,14.55
2018-09-08T23:29:13.366Z,14.58
2018-09-08T23:31:43.258Z,14.59
2018-09-08T23:34:12.980Z,14.58
2018-09-08T23:36:42.788Z,14.60
2018-09-08T23:39:12.536Z,14.57
2018-09-08T23:41:42.201Z,14.58
2018-09-08T23:44:12.145Z,14.57
2018-09-08T23:46:42.123Z,14.58
2018-09-08T23:49:11.800Z,14.54
2018-09-08T23:51:41.479Z,14.45
2018-09-08T23:54:12.233Z,14.40
2018-09-08T23:56:41.941Z,14.36
2018-09-08T23:59:11.640Z,14.32
